createdAt,value
2017-10-03T00:00:52.829Z,0
2017-10-03T00:01:52.774Z,0
2017-10-03T00:02:53.081Z,0
2017-10-03T00:03:52.760Z,0
2017-10-03T00:04:53.040Z,0
2017-10-03T00:05:53.001Z,0
2017-10-03T00:06:52.674Z,0
2017-10-03T00:07:53.001Z,0
2017-10-03T00:08:52.958Z,0
2017-10-03T00:09:52.613Z,0
2017-10-03T00:10:52.911Z,0
2017-10-03T00:11:52.889Z,0
2017-10-03T00:12:52.869Z,0
2017-10-03T00:13:52.316Z,0
2017-10-03T00:14:52.832Z,0
2017-10-03T00:15:52.515Z,0
2017-10-03T00:16:52.800Z,0
2017-10-03T00:17:52.460Z,0
2017-10-03T00:18:52.769Z,0
2017-10-03T00:19:52.751Z,0
2017-10-03T00:20:52.733Z,0
2017-10-03T00:21:52.722Z,0
2017-10-03T00:22:52.460Z,0
2017-10-03T00:23:52.681Z,0
2017-10-03T00:24:52.672Z,0
2017-10-03T00:25:52.650Z,0
2017-10-03T00:26:52.326Z,0
2017-10-03T00:27:52.299Z,0
2017-10-03T00:28:52.584Z,0
2017-10-03T00:29:52.232Z,0
2017-10-03T00:30:52.240Z,0
2017-10-03T00:31:52.538Z,0
2017-10-03T00:32:52.530Z,0
2017-10-03T00:33:52.207Z,0
2017-10-03T00:34:52.171Z,0
2017-10-03T00:35:52.458Z,0
2017-10-03T00:36:52.137Z,0
2017-10-03T00:37:52.108Z,0
2017-10-03T00:38:52.077Z,0
2017-10-03T00:39:52.075Z,0
2017-10-03T00:40:52.359Z,0
2017-10-03T00:41:52.333Z,0
2017-10-03T00:42:52.339Z,0
2017-10-03T00:43:52.333Z,0
2017-10-03T00:44:52.285Z,0
2017-10-03T00:45:51.958Z,0
2017-10-03T00:46:52.260Z,0
2017-10-03T00:47:52.229Z,0
2017-10-03T00:48:52.225Z,0
2017-10-03T00:49:51.879Z,0
2017-10-03T00:50:51.857Z,0
2017-10-03T00:51:52.160Z,0
2017-10-03T00:52:51.515Z,0
2017-10-03T00:53:51.801Z,0
2017-10-03T00:54:51.793Z,0
2017-10-03T00:55:51.788Z,0
2017-10-03T00:56:52.068Z,0
2017-10-03T00:57:51.759Z,0
2017-10-03T00:58:52.036Z,0
2017-10-03T00:59:51.691Z,0
2017-10-03T01:00:51.682Z,0
2017-10-03T01:01:51.985Z,0
2017-10-03T01:02:51.328Z,0
2017-10-03T01:03:51.639Z,0
2017-10-03T01:04:51.316Z,0
2017-10-03T01:05:51.282Z,0
2017-10-03T01:06:51.882Z,0
2017-10-03T01:07:51.282Z,0
2017-10-03T01:08:50.914Z,0
2017-10-03T01:09:51.536Z,0
2017-10-03T01:10:51.825Z,0
2017-10-03T01:11:51.489Z,0
2017-10-03T01:12:51.778Z,0
2017-10-03T01:13:51.766Z,0
2017-10-03T01:14:51.417Z,0
2017-10-03T01:15:51.702Z,0
2017-10-03T01:16:51.400Z,0
2017-10-03T01:17:51.699Z,0
2017-10-03T01:18:51.660Z,0
2017-10-03T01:19:51.341Z,0
2017-10-03T01:20:51.341Z,0
2017-10-03T01:21:51.602Z,0
2017-10-03T01:22:51.593Z,0
2017-10-03T01:23:51.568Z,0
2017-10-03T01:24:51.545Z,0
2017-10-03T01:25:51.309Z,0
2017-10-03T01:26:50.894Z,0
2017-10-03T01:27:51.182Z,0
2017-10-03T01:28:51.500Z,0
2017-10-03T01:29:51.459Z,0
2017-10-03T01:30:50.829Z,0
2017-10-03T01:31:50.826Z,0
2017-10-03T01:32:51.108Z,0
2017-10-03T01:33:50.766Z,0
2017-10-03T01:34:51.067Z,0
2017-10-03T01:35:51.047Z,0
2017-10-03T01:36:50.719Z,0
2017-10-03T01:37:51.003Z,0
2017-10-03T01:38:50.998Z,0
2017-10-03T01:39:51.280Z,0
2017-10-03T01:40:50.648Z,0
2017-10-03T01:41:50.614Z,0
2017-10-03T01:42:50.280Z,0
2017-10-03T01:43:50.589Z,0
2017-10-03T01:44:50.930Z,0
2017-10-03T01:45:50.563Z,0
2017-10-03T01:46:50.529Z,0
2017-10-03T01:47:51.139Z,0
2017-10-03T01:48:51.104Z,0
2017-10-03T01:49:50.778Z,0
2017-10-03T01:50:50.145Z,0
2017-10-03T01:51:51.065Z,0
2017-10-03T01:52:51.040Z,0
2017-10-03T01:53:50.707Z,0
2017-10-03T01:54:50.065Z,0
2017-10-03T01:55:50.782Z,0
2017-10-03T01:56:50.969Z,0
2017-10-03T01:57:50.947Z,0
2017-10-03T01:58:50.307Z,0
2017-10-03T01:59:50.611Z,0
2017-10-03T02:00:50.882Z,0
2017-10-03T02:01:50.564Z,0
2017-10-03T02:02:50.608Z,0
2017-10-03T02:03:50.523Z,0
2017-10-03T02:04:50.213Z,0
2017-10-03T02:05:50.797Z,0
2017-10-03T02:06:50.480Z,0
2017-10-03T02:07:50.531Z,0
2017-10-03T02:08:50.465Z,0
2017-10-03T02:09:50.728Z,0
2017-10-03T02:10:50.098Z,0
2017-10-03T02:11:50.484Z,0
2017-10-03T02:12:50.379Z,0
2017-10-03T02:13:50.660Z,0
2017-10-03T02:14:50.014Z,0
2017-10-03T02:15:50.612Z,0
2017-10-03T02:16:50.315Z,0
2017-10-03T02:17:50.578Z,0
2017-10-03T02:18:50.558Z,0
2017-10-03T02:19:50.546Z,0
2017-10-03T02:20:50.529Z,0
2017-10-03T02:21:50.510Z,0
2017-10-03T02:22:50.178Z,0
2017-10-03T02:23:50.480Z,0
2017-10-03T02:24:50.451Z,0
2017-10-03T02:25:50.214Z,0
2017-10-03T02:26:50.111Z,0
2017-10-03T02:27:50.417Z,0
2017-10-03T02:28:50.081Z,0
2017-10-03T02:29:50.375Z,0
2017-10-03T02:30:50.353Z,0
2017-10-03T02:31:50.127Z,0
2017-10-03T02:32:49.679Z,0
2017-10-03T02:33:50.049Z,0
2017-10-03T02:34:50.287Z,0
2017-10-03T02:35:50.270Z,0
2017-10-03T02:36:49.926Z,0
2017-10-03T02:37:49.919Z,0
2017-10-03T02:38:49.902Z,0
2017-10-03T02:39:49.881Z,0
2017-10-03T02:40:49.789Z,0
2017-10-03T02:41:49.843Z,0
2017-10-03T02:42:49.187Z,0
2017-10-03T02:43:50.108Z,0
2017-10-03T02:44:49.760Z,0
2017-10-03T02:45:50.072Z,0
2017-10-03T02:46:49.111Z,0
2017-10-03T02:47:50.019Z,0
2017-10-03T02:48:49.709Z,0
2017-10-03T02:49:50.002Z,0
2017-10-03T02:50:49.985Z,0
2017-10-03T02:51:49.340Z,0
2017-10-03T02:52:49.939Z,0
2017-10-03T02:53:49.959Z,0
2017-10-03T02:54:49.606Z,0
2017-10-03T02:55:49.579Z,0
2017-10-03T02:56:49.863Z,0
2017-10-03T02:57:48.919Z,0
2017-10-03T02:58:49.831Z,0
2017-10-03T02:59:49.301Z,0
2017-10-03T03:00:49.480Z,0
2017-10-03T03:01:49.230Z,0
2017-10-03T03:02:49.443Z,0
2017-10-03T03:03:49.730Z,0
2017-10-03T03:04:49.419Z,0
2017-10-03T03:05:48.818Z,0
2017-10-03T03:06:49.369Z,0
2017-10-03T03:07:49.342Z,0
2017-10-03T03:08:49.342Z,0
2017-10-03T03:09:49.050Z,0
2017-10-03T03:10:49.359Z,0
2017-10-03T03:11:49.279Z,0
2017-10-03T03:12:48.960Z,0
2017-10-03T03:13:48.651Z,0
2017-10-03T03:14:48.966Z,0
2017-10-03T03:15:49.219Z,0
2017-10-03T03:16:49.200Z,0
2017-10-03T03:17:49.220Z,0
2017-10-03T03:18:49.148Z,0
2017-10-03T03:19:49.122Z,0
2017-10-03T03:20:49.130Z,0
2017-10-03T03:21:49.399Z,0
2017-10-03T03:22:49.084Z,0
2017-10-03T03:23:49.490Z,0
2017-10-03T03:24:49.342Z,0
2017-10-03T03:25:49.338Z,0
2017-10-03T03:26:49.130Z,0
2017-10-03T03:27:48.993Z,0
2017-10-03T03:28:48.980Z,0
2017-10-03T03:29:49.340Z,0
2017-10-03T03:30:48.930Z,0
2017-10-03T03:31:49.227Z,0
2017-10-03T03:32:48.573Z,0
2017-10-03T03:33:49.159Z,0
2017-10-03T03:34:48.972Z,0
2017-10-03T03:35:48.521Z,0
2017-10-03T03:36:49.175Z,0
2017-10-03T03:37:49.241Z,0
2017-10-03T03:38:49.089Z,0
2017-10-03T03:39:48.773Z,0
2017-10-03T03:40:48.250Z,0
2017-10-03T03:41:48.719Z,0
2017-10-03T03:42:49.009Z,0
2017-10-03T03:43:48.370Z,0
2017-10-03T03:44:48.980Z,0
2017-10-03T03:45:48.581Z,0
2017-10-03T03:46:49.049Z,0
2017-10-03T03:47:48.925Z,0
2017-10-03T03:48:49.001Z,0
2017-10-03T03:49:48.278Z,0
2017-10-03T03:50:48.899Z,0
2017-10-03T03:51:48.860Z,0
2017-10-03T03:52:48.554Z,0
2017-10-03T03:53:48.179Z,0
2017-10-03T03:54:48.769Z,0
2017-10-03T03:55:48.774Z,0
2017-10-03T03:56:48.423Z,0
2017-10-03T03:57:48.736Z,0
2017-10-03T03:58:48.393Z,0
2017-10-03T03:59:48.686Z,0
2017-10-03T04:00:48.930Z,0
2017-10-03T04:01:48.040Z,0
2017-10-03T04:02:48.330Z,0
2017-10-03T04:03:48.307Z,0
2017-10-03T04:04:48.600Z,0
2017-10-03T04:05:47.950Z,0
2017-10-03T04:06:48.240Z,0
2017-10-03T04:07:47.612Z,0
2017-10-03T04:08:47.897Z,0
2017-10-03T04:09:48.193Z,0
2017-10-03T04:10:48.179Z,0
2017-10-03T04:11:48.472Z,0
2017-10-03T04:12:47.520Z,0
2017-10-03T04:13:48.419Z,0
2017-10-03T04:14:48.092Z,0
2017-10-03T04:15:48.110Z,0
2017-10-03T04:16:47.758Z,0
2017-10-03T04:17:48.053Z,0
2017-10-03T04:18:48.333Z,0
2017-10-03T04:19:47.685Z,0
2017-10-03T04:20:47.991Z,0
2017-10-03T04:21:47.964Z,0
2017-10-03T04:22:47.944Z,0
2017-10-03T04:23:47.930Z,0
2017-10-03T04:24:47.918Z,0
2017-10-03T04:25:47.901Z,0
2017-10-03T04:26:47.873Z,0
2017-10-03T04:27:47.957Z,0
2017-10-03T04:28:47.842Z,0
2017-10-03T04:29:48.255Z,0
2017-10-03T04:30:48.130Z,0
2017-10-03T04:31:48.201Z,0
2017-10-03T04:32:48.072Z,0
2017-10-03T04:33:48.169Z,0
2017-10-03T04:34:48.031Z,0
2017-10-03T04:35:48.131Z,0
2017-10-03T04:36:47.378Z,0
2017-10-03T04:37:47.971Z,0
2017-10-03T04:38:47.333Z,0
2017-10-03T04:39:47.641Z,0
2017-10-03T04:40:47.599Z,0
2017-10-03T04:41:47.919Z,0
2017-10-03T04:42:47.887Z,0
2017-10-03T04:43:47.561Z,0
2017-10-03T04:44:47.880Z,0
2017-10-03T04:45:47.630Z,0
2017-10-03T04:46:47.500Z,0
2017-10-03T04:47:47.923Z,0
2017-10-03T04:48:47.791Z,0
2017-10-03T04:49:47.148Z,0
2017-10-03T04:50:47.117Z,0
2017-10-03T04:51:47.406Z,0
2017-10-03T04:52:47.083Z,0
2017-10-03T04:53:47.371Z,0
2017-10-03T04:54:47.680Z,0
2017-10-03T04:55:47.650Z,0
2017-10-03T04:56:47.315Z,0
2017-10-03T04:57:47.300Z,0
2017-10-03T04:58:47.063Z,0
2017-10-03T04:59:47.630Z,0
2017-10-03T05:00:47.541Z,0
2017-10-03T05:01:47.320Z,0
2017-10-03T05:02:47.331Z,0
2017-10-03T05:03:47.281Z,0
2017-10-03T05:04:47.550Z,0
2017-10-03T05:05:47.148Z,0
2017-10-03T05:06:46.497Z,0
2017-10-03T05:07:46.804Z,0
2017-10-03T05:08:46.781Z,0
2017-10-03T05:09:47.058Z,0
2017-10-03T05:10:47.144Z,4
2017-10-03T05:11:47.350Z,0
2017-10-03T05:12:46.998Z,4
2017-10-03T05:13:46.675Z,4
2017-10-03T05:14:47.369Z,4
2017-10-03T05:15:46.646Z,4
2017-10-03T05:16:47.249Z,8
2017-10-03T05:17:46.910Z,4
2017-10-03T05:18:46.899Z,8
2017-10-03T05:19:46.899Z,8
2017-10-03T05:20:46.585Z,12
2017-10-03T05:21:47.169Z,8
2017-10-03T05:22:46.829Z,12
2017-10-03T05:23:46.801Z,12
2017-10-03T05:24:46.950Z,12
2017-10-03T05:25:47.193Z,16
2017-10-03T05:26:46.440Z,16
2017-10-03T05:27:46.725Z,24
2017-10-03T05:28:46.714Z,20
2017-10-03T05:29:47.105Z,20
2017-10-03T05:30:46.417Z,16
2017-10-03T05:31:46.970Z,16
2017-10-03T05:32:46.953Z,20
2017-10-03T05:33:46.710Z,24
2017-10-03T05:34:46.908Z,28
2017-10-03T05:35:46.578Z,36
2017-10-03T05:36:46.556Z,44
2017-10-03T05:37:46.878Z,52
2017-10-03T05:38:46.520Z,56
2017-10-03T05:39:46.813Z,64
2017-10-03T05:40:46.807Z,72
2017-10-03T05:41:46.479Z,80
2017-10-03T05:42:46.845Z,92
2017-10-03T05:43:46.730Z,100
2017-10-03T05:44:46.814Z,108
2017-10-03T05:45:46.079Z,120
2017-10-03T05:46:46.698Z,128
2017-10-03T05:47:45.736Z,140
2017-10-03T05:48:46.332Z,148
2017-10-03T05:49:46.330Z,168
2017-10-03T05:50:46.593Z,180
2017-10-03T05:51:46.337Z,196
2017-10-03T05:52:45.949Z,212
2017-10-03T05:53:45.926Z,228
2017-10-03T05:54:46.222Z,252
2017-10-03T05:55:45.579Z,276
2017-10-03T05:56:46.188Z,296
2017-10-03T05:57:46.482Z,316
2017-10-03T05:58:46.459Z,332
2017-10-03T05:59:46.449Z,344
2017-10-03T06:00:46.098Z,336
2017-10-03T06:01:46.468Z,324
2017-10-03T06:02:45.764Z,316
2017-10-03T06:03:46.048Z,312
2017-10-03T06:04:45.720Z,316
2017-10-03T06:05:46.048Z,332
2017-10-03T06:06:46.008Z,340
2017-10-03T06:07:46.086Z,324
2017-10-03T06:08:46.256Z,328
2017-10-03T06:09:45.619Z,344
2017-10-03T06:10:46.260Z,404
2017-10-03T06:11:46.279Z,456
2017-10-03T06:12:45.869Z,572
2017-10-03T06:13:45.570Z,688
2017-10-03T06:14:45.863Z,828
2017-10-03T06:15:46.152Z,892
2017-10-03T06:16:45.821Z,960
2017-10-03T06:17:45.868Z,1088
2017-10-03T06:18:45.455Z,1192
2017-10-03T06:19:46.070Z,1308
2017-10-03T06:20:45.730Z,1412
2017-10-03T06:21:46.100Z,1532
2017-10-03T06:22:46.071Z,1684
2017-10-03T06:23:45.721Z,1940
2017-10-03T06:24:46.045Z,2252
2017-10-03T06:25:45.640Z,2960
2017-10-03T06:26:45.639Z,11232
2017-10-03T06:27:45.899Z,22816
2017-10-03T06:28:45.308Z,25056
2017-10-03T06:29:45.889Z,25440
2017-10-03T06:30:45.573Z,23168
2017-10-03T06:31:45.579Z,23616
2017-10-03T06:32:45.518Z,8616
2017-10-03T06:33:45.503Z,13816
2017-10-03T06:34:45.475Z,9564
2017-10-03T06:35:45.530Z,7156
2017-10-03T06:36:45.739Z,7296
2017-10-03T06:37:45.808Z,7944
2017-10-03T06:38:44.788Z,8620
2017-10-03T06:39:45.699Z,9052
2017-10-03T06:40:45.379Z,8952
2017-10-03T06:41:45.435Z,8484
2017-10-03T06:42:45.363Z,8500
2017-10-03T06:43:45.702Z,8400
2017-10-03T06:44:45.679Z,8360
2017-10-03T06:45:45.711Z,8556
2017-10-03T06:46:45.594Z,8720
2017-10-03T06:47:45.598Z,8856
2017-10-03T06:48:44.629Z,10896
2017-10-03T06:49:45.231Z,16096
2017-10-03T06:50:44.969Z,22624
2017-10-03T06:51:45.556Z,30016
2017-10-03T06:52:45.557Z,39296
2017-10-03T06:53:45.503Z,43936
2017-10-03T06:54:45.480Z,41888
2017-10-03T06:55:44.855Z,40608
2017-10-03T06:56:45.139Z,44000
2017-10-03T06:57:45.109Z,44576
2017-10-03T06:58:45.409Z,44192
2017-10-03T06:59:45.059Z,42816
2017-10-03T07:00:45.058Z,42464
2017-10-03T07:01:44.739Z,42560
2017-10-03T07:02:45.361Z,43552
2017-10-03T07:03:45.015Z,46592
2017-10-03T07:04:45.329Z,50080
2017-10-03T07:05:44.987Z,51968
2017-10-03T07:06:44.987Z,24832
2017-10-03T07:07:45.359Z,46752
2017-10-03T07:08:44.957Z,42400
2017-10-03T07:09:45.271Z,41984
2017-10-03T07:10:45.250Z,16512
2017-10-03T07:11:44.985Z,36224
2017-10-03T07:12:45.184Z,11932
2017-10-03T07:13:44.256Z,17408
2017-10-03T07:14:45.171Z,10624
2017-10-03T07:15:45.169Z,8124
2017-10-03T07:16:45.182Z,7356
2017-10-03T07:17:44.829Z,8356
2017-10-03T07:18:45.139Z,11196
2017-10-03T07:19:45.141Z,20864
2017-10-03T07:20:44.779Z,31360
2017-10-03T07:21:45.083Z,26944
2017-10-03T07:22:44.134Z,6768
2017-10-03T07:23:45.076Z,6308
2017-10-03T07:24:45.085Z,11604
2017-10-03T07:25:45.039Z,16928
2017-10-03T07:26:45.012Z,39808
2017-10-03T07:27:44.989Z,56064
2017-10-03T07:28:44.369Z,45856
2017-10-03T07:29:44.349Z,39200
2017-10-03T07:30:44.658Z,48096
2017-10-03T07:31:44.331Z,18400
2017-10-03T07:32:44.909Z,15552
2017-10-03T07:33:44.905Z,13704
2017-10-03T07:34:44.589Z,25536
2017-10-03T07:35:44.875Z,21312
2017-10-03T07:36:44.569Z,17984
2017-10-03T07:37:44.545Z,29440
2017-10-03T07:38:44.820Z,29728
2017-10-03T07:39:44.529Z,10144
2017-10-03T07:40:44.196Z,9588
2017-10-03T07:41:44.477Z,8848
2017-10-03T07:42:44.792Z,9636
2017-10-03T07:43:44.481Z,12296
2017-10-03T07:44:44.781Z,9436
2017-10-03T07:45:44.131Z,5316
2017-10-03T07:46:44.451Z,4664
2017-10-03T07:47:44.412Z,4364
2017-10-03T07:48:44.709Z,4056
2017-10-03T07:49:44.689Z,3692
2017-10-03T07:50:44.370Z,3116
2017-10-03T07:51:44.355Z,2748
2017-10-03T07:52:44.358Z,2972
2017-10-03T07:53:44.320Z,2860
2017-10-03T07:54:44.295Z,2640
2017-10-03T07:55:44.599Z,3168
2017-10-03T07:56:44.291Z,3472
2017-10-03T07:57:44.599Z,3696
2017-10-03T07:58:44.278Z,3740
2017-10-03T07:59:44.549Z,3564
2017-10-03T08:00:44.552Z,3816
2017-10-03T08:01:44.532Z,3816
2017-10-03T08:02:44.190Z,3868
2017-10-03T08:03:44.178Z,3496
2017-10-03T08:04:44.220Z,3400
2017-10-03T08:05:43.842Z,3108
2017-10-03T08:06:44.136Z,2980
2017-10-03T08:07:44.449Z,2728
2017-10-03T08:08:44.356Z,2732
2017-10-03T08:09:44.060Z,2640
2017-10-03T08:10:44.391Z,2400
2017-10-03T08:11:44.048Z,2544
2017-10-03T08:12:44.090Z,2860
2017-10-03T08:13:44.030Z,3224
2017-10-03T08:14:44.008Z,3268
2017-10-03T08:15:43.674Z,2968
2017-10-03T08:16:43.963Z,2992
2017-10-03T08:17:44.280Z,3020
2017-10-03T08:18:43.940Z,2748
2017-10-03T08:19:44.246Z,2340
2017-10-03T08:20:43.695Z,1988
2017-10-03T08:21:43.562Z,2064
2017-10-03T08:22:44.258Z,2052
2017-10-03T08:23:44.169Z,2144
2017-10-03T08:24:44.144Z,2292
2017-10-03T08:25:44.180Z,2624
2017-10-03T08:26:43.802Z,2912
2017-10-03T08:27:44.223Z,3320
2017-10-03T08:28:44.195Z,3368
2017-10-03T08:29:43.755Z,3792
2017-10-03T08:30:44.070Z,4148
2017-10-03T08:31:43.760Z,4076
2017-10-03T08:32:44.009Z,4012
2017-10-03T08:33:44.056Z,3880
2017-10-03T08:34:43.693Z,4012
2017-10-03T08:35:43.627Z,3612
2017-10-03T08:36:43.987Z,3676
2017-10-03T08:37:43.637Z,3164
2017-10-03T08:38:43.689Z,3784
2017-10-03T08:39:43.580Z,2740
2017-10-03T08:40:43.559Z,2036
2017-10-03T08:41:43.909Z,2024
2017-10-03T08:42:43.283Z,2676
2017-10-03T08:43:43.519Z,3932
2017-10-03T08:44:43.921Z,6428
2017-10-03T08:45:43.852Z,10652
2017-10-03T08:46:43.531Z,14936
2017-10-03T08:47:43.765Z,12672
2017-10-03T08:48:43.423Z,12020
2017-10-03T08:49:43.751Z,9396
2017-10-03T08:50:43.725Z,21408
2017-10-03T08:51:43.368Z,34400
2017-10-03T08:52:43.735Z,59552
2017-10-03T08:53:43.368Z,72992
2017-10-03T08:54:43.741Z,14664
2017-10-03T08:55:43.663Z,16352
2017-10-03T08:56:43.613Z,24192
2017-10-03T08:57:43.784Z,17056
2017-10-03T08:58:43.283Z,17952
2017-10-03T08:59:43.359Z,17504
2017-10-03T09:00:43.257Z,16480
2017-10-03T09:01:43.652Z,16992
2017-10-03T09:02:43.508Z,12620
2017-10-03T09:03:43.588Z,32544
2017-10-03T09:04:43.538Z,11012
2017-10-03T09:05:43.296Z,7256
2017-10-03T09:06:43.466Z,4996
2017-10-03T09:07:43.156Z,5012
2017-10-03T09:08:43.136Z,3668
2017-10-03T09:09:43.131Z,2844
2017-10-03T09:10:43.430Z,3348
2017-10-03T09:11:43.129Z,3816
2017-10-03T09:12:43.413Z,3800
2017-10-03T09:13:43.403Z,3976
2017-10-03T09:14:43.419Z,4932
2017-10-03T09:15:43.055Z,37792
2017-10-03T09:16:43.343Z,13968
2017-10-03T09:17:43.392Z,6196
2017-10-03T09:18:43.364Z,12852
2017-10-03T09:19:43.342Z,8232
2017-10-03T09:20:43.331Z,21536
2017-10-03T09:21:43.341Z,41600
2017-10-03T09:22:43.262Z,21376
2017-10-03T09:23:43.261Z,11640
2017-10-03T09:24:43.208Z,25920
2017-10-03T09:25:42.585Z,20736
2017-10-03T09:26:43.199Z,13092
2017-10-03T09:27:43.191Z,11552
2017-10-03T09:28:42.871Z,67744
2017-10-03T09:29:43.156Z,20896
2017-10-03T09:30:43.162Z,25600
2017-10-03T09:31:43.155Z,61792
2017-10-03T09:32:42.797Z,41216
2017-10-03T09:33:43.097Z,62560
2017-10-03T09:34:42.798Z,61056
2017-10-03T09:35:42.814Z,64800
2017-10-03T09:36:43.063Z,48640
2017-10-03T09:37:43.042Z,8672
2017-10-03T09:38:42.728Z,8436
2017-10-03T09:39:43.035Z,59872
2017-10-03T09:40:42.712Z,16960
2017-10-03T09:41:43.005Z,13956
2017-10-03T09:42:42.669Z,11904
2017-10-03T09:43:43.011Z,9612
2017-10-03T09:44:42.649Z,11748
2017-10-03T09:45:42.969Z,56608
2017-10-03T09:46:42.943Z,56768
2017-10-03T09:47:43.012Z,18016
2017-10-03T09:48:42.911Z,55232
2017-10-03T09:49:42.898Z,53376
2017-10-03T09:50:42.600Z,15504
2017-10-03T09:51:42.888Z,13700
2017-10-03T09:52:42.592Z,6828
2017-10-03T09:53:42.858Z,6300
2017-10-03T09:54:42.230Z,6708
2017-10-03T09:55:42.530Z,6552
2017-10-03T09:56:42.529Z,50944
2017-10-03T09:57:42.851Z,7876
2017-10-03T09:58:42.815Z,46528
2017-10-03T09:59:42.866Z,47520
2017-10-03T10:00:42.467Z,14596
2017-10-03T10:01:42.476Z,46624
2017-10-03T10:02:42.767Z,12048
2017-10-03T10:03:42.817Z,5092
2017-10-03T10:04:42.849Z,4064
2017-10-03T10:05:42.789Z,4088
2017-10-03T10:06:42.748Z,4212
2017-10-03T10:07:42.105Z,39712
2017-10-03T10:08:42.405Z,36480
2017-10-03T10:09:42.708Z,20928
2017-10-03T10:10:42.678Z,33792
2017-10-03T10:11:42.695Z,20864
2017-10-03T10:12:42.666Z,33728
2017-10-03T10:13:42.724Z,35616
2017-10-03T10:14:42.019Z,14172
2017-10-03T10:15:42.620Z,11020
2017-10-03T10:16:42.601Z,11328
2017-10-03T10:17:42.299Z,7316
2017-10-03T10:18:42.590Z,5496
2017-10-03T10:19:42.580Z,4280
2017-10-03T10:20:42.266Z,3224
2017-10-03T10:21:42.576Z,2524
2017-10-03T10:22:42.242Z,2280
2017-10-03T10:23:42.249Z,2152
2017-10-03T10:24:42.219Z,2112
2017-10-03T10:25:41.908Z,2164
2017-10-03T10:26:42.509Z,2108
2017-10-03T10:27:42.199Z,2288
2017-10-03T10:28:42.486Z,3060
2017-10-03T10:29:42.492Z,10176
2017-10-03T10:30:42.479Z,6832
2017-10-03T10:31:42.126Z,7436
2017-10-03T10:32:42.132Z,8664
2017-10-03T10:33:42.440Z,6300
2017-10-03T10:34:42.088Z,5848
2017-10-03T10:35:42.408Z,5856
2017-10-03T10:36:42.080Z,6572
2017-10-03T10:37:42.397Z,6532
2017-10-03T10:38:42.150Z,6388
2017-10-03T10:39:42.348Z,6416
2017-10-03T10:40:41.774Z,6336
2017-10-03T10:41:42.001Z,5672
2017-10-03T10:42:42.011Z,5204
2017-10-03T10:43:41.981Z,6352
2017-10-03T10:44:41.963Z,7168
2017-10-03T10:45:42.021Z,9308
2017-10-03T10:46:41.953Z,7236
2017-10-03T10:47:42.221Z,5764
2017-10-03T10:48:42.213Z,6572
2017-10-03T10:49:41.884Z,5868
2017-10-03T10:50:42.218Z,5936
2017-10-03T10:51:42.170Z,6528
2017-10-03T10:52:42.162Z,6684
2017-10-03T10:53:42.148Z,6460
2017-10-03T10:54:41.940Z,12572
2017-10-03T10:55:41.488Z,15172
2017-10-03T10:56:41.820Z,15968
2017-10-03T10:57:42.182Z,15744
2017-10-03T10:58:42.229Z,12628
2017-10-03T10:59:41.817Z,13948
2017-10-03T11:00:42.117Z,10328
2017-10-03T11:01:41.781Z,14188
2017-10-03T11:02:41.413Z,9628
2017-10-03T11:03:42.031Z,10452
2017-10-03T11:04:42.009Z,11124
2017-10-03T11:05:41.682Z,9428
2017-10-03T11:06:42.102Z,12936
2017-10-03T11:07:41.984Z,9508
2017-10-03T11:08:41.320Z,12548
2017-10-03T11:09:41.669Z,12380
2017-10-03T11:10:42.001Z,10224
2017-10-03T11:11:42.017Z,12596
2017-10-03T11:12:41.927Z,12976
2017-10-03T11:13:41.940Z,12588
2017-10-03T11:14:41.950Z,12104
2017-10-03T11:15:41.894Z,11728
2017-10-03T11:16:41.910Z,11648
2017-10-03T11:17:41.519Z,11572
2017-10-03T11:18:41.600Z,11588
2017-10-03T11:19:41.822Z,9684
2017-10-03T11:20:41.171Z,9428
2017-10-03T11:21:41.822Z,6184
2017-10-03T11:22:41.152Z,5764
2017-10-03T11:23:41.783Z,5300
2017-10-03T11:24:41.441Z,6144
2017-10-03T11:25:41.844Z,5304
2017-10-03T11:26:41.751Z,4792
2017-10-03T11:27:41.390Z,7084
2017-10-03T11:28:41.390Z,10716
2017-10-03T11:29:41.060Z,11516
2017-10-03T11:30:41.356Z,10728
2017-10-03T11:31:41.649Z,11332
2017-10-03T11:32:41.640Z,10632
2017-10-03T11:33:41.705Z,6972
2017-10-03T11:34:41.612Z,11284
2017-10-03T11:35:41.291Z,11688
2017-10-03T11:36:41.602Z,6776
2017-10-03T11:37:44.100Z,10508
2017-10-03T11:38:41.268Z,10036
2017-10-03T11:39:41.250Z,7764
2017-10-03T11:40:41.562Z,9604
2017-10-03T11:41:41.224Z,9480
2017-10-03T11:42:41.201Z,9580
2017-10-03T11:43:41.503Z,9448
2017-10-03T11:44:41.500Z,9272
2017-10-03T11:45:41.171Z,9144
2017-10-03T11:46:41.472Z,9168
2017-10-03T11:47:41.462Z,9844
2017-10-03T11:48:41.460Z,10424
2017-10-03T11:49:41.422Z,6704
2017-10-03T11:50:41.140Z,6536
2017-10-03T11:51:41.117Z,9380
2017-10-03T11:52:41.090Z,8340
2017-10-03T11:53:41.190Z,13012
2017-10-03T11:54:41.071Z,13432
2017-10-03T11:55:41.367Z,11944
2017-10-03T11:56:41.051Z,12160
2017-10-03T11:57:41.365Z,12508
2017-10-03T11:58:41.306Z,8964
2017-10-03T11:59:41.019Z,12796
2017-10-03T12:00:41.324Z,7168
2017-10-03T12:01:41.036Z,12484
2017-10-03T12:02:41.281Z,10208
2017-10-03T12:03:41.260Z,7784
2017-10-03T12:04:40.959Z,6740
2017-10-03T12:05:41.251Z,6268
2017-10-03T12:06:40.941Z,6072
2017-10-03T12:07:41.241Z,5876
2017-10-03T12:08:41.213Z,5428
2017-10-03T12:09:41.197Z,4432
2017-10-03T12:10:41.196Z,3428
2017-10-03T12:11:40.884Z,2580
2017-10-03T12:12:41.152Z,2312
2017-10-03T12:13:40.863Z,2192
2017-10-03T12:14:40.844Z,2280
2017-10-03T12:15:41.129Z,2628
2017-10-03T12:16:41.129Z,3188
2017-10-03T12:17:41.121Z,4512
2017-10-03T12:18:41.090Z,3996
2017-10-03T12:19:40.463Z,4484
2017-10-03T12:20:40.745Z,5124
2017-10-03T12:21:40.774Z,6176
2017-10-03T12:22:41.064Z,10604
2017-10-03T12:23:40.761Z,6912
2017-10-03T12:24:41.003Z,7464
2017-10-03T12:25:40.786Z,10692
2017-10-03T12:26:41.034Z,11380
2017-10-03T12:27:40.401Z,11636
2017-10-03T12:28:41.051Z,11284
2017-10-03T12:29:40.741Z,10820
2017-10-03T12:30:40.641Z,10252
2017-10-03T12:31:40.716Z,9912
2017-10-03T12:32:40.911Z,9344
2017-10-03T12:33:40.636Z,8960
2017-10-03T12:34:40.881Z,8716
2017-10-03T12:35:40.971Z,8612
2017-10-03T12:36:40.876Z,8552
2017-10-03T12:37:40.832Z,8540
2017-10-03T12:38:40.842Z,8456
2017-10-03T12:39:40.852Z,8404
2017-10-03T12:40:40.803Z,8404
2017-10-03T12:41:40.803Z,8392
2017-10-03T12:42:40.136Z,8368
2017-10-03T12:43:40.787Z,8332
2017-10-03T12:44:40.447Z,8260
2017-10-03T12:45:40.822Z,8324
2017-10-03T12:46:40.419Z,8352
2017-10-03T12:47:40.726Z,8436
2017-10-03T12:48:40.698Z,8448
2017-10-03T12:49:40.713Z,8480
2017-10-03T12:50:40.682Z,8480
2017-10-03T12:51:40.393Z,8632
2017-10-03T12:52:40.664Z,8008
2017-10-03T12:53:40.323Z,8764
2017-10-03T12:54:40.310Z,8840
2017-10-03T12:55:40.621Z,8780
2017-10-03T12:56:40.290Z,4196
2017-10-03T12:57:40.609Z,3828
2017-10-03T12:58:40.585Z,6052
2017-10-03T12:59:40.265Z,7508
2017-10-03T13:00:40.569Z,6652
2017-10-03T13:01:39.927Z,10092
2017-10-03T13:02:40.231Z,10060
2017-10-03T13:03:40.538Z,9888
2017-10-03T13:04:40.190Z,10324
2017-10-03T13:05:40.181Z,5580
2017-10-03T13:06:40.157Z,6780
2017-10-03T13:07:40.164Z,3412
2017-10-03T13:08:40.472Z,3032
2017-10-03T13:09:40.187Z,2880
2017-10-03T13:10:39.797Z,2948
2017-10-03T13:11:40.201Z,3152
2017-10-03T13:12:40.171Z,3324
2017-10-03T13:13:40.401Z,3072
2017-10-03T13:14:40.391Z,2796
2017-10-03T13:15:40.360Z,2596
2017-10-03T13:16:40.350Z,2452
2017-10-03T13:17:40.354Z,2288
2017-10-03T13:18:40.313Z,1976
2017-10-03T13:19:40.308Z,1668
2017-10-03T13:20:40.343Z,1520
2017-10-03T13:21:40.301Z,1644
2017-10-03T13:22:40.342Z,1944
2017-10-03T13:23:39.684Z,2844
2017-10-03T13:24:40.270Z,3552
2017-10-03T13:25:40.311Z,4048
2017-10-03T13:26:40.333Z,4148
2017-10-03T13:27:39.881Z,3944
2017-10-03T13:28:39.581Z,3512
2017-10-03T13:29:39.949Z,3204
2017-10-03T13:30:40.150Z,3156
2017-10-03T13:31:39.852Z,2980
2017-10-03T13:32:40.141Z,2736
2017-10-03T13:33:40.163Z,2616
2017-10-03T13:34:39.877Z,2632
2017-10-03T13:35:40.127Z,2548
2017-10-03T13:36:39.804Z,2452
2017-10-03T13:37:40.082Z,2420
2017-10-03T13:38:40.117Z,2480
2017-10-03T13:39:40.133Z,2808
2017-10-03T13:40:39.750Z,3032
2017-10-03T13:41:39.723Z,3636
2017-10-03T13:42:40.070Z,3592
2017-10-03T13:43:39.673Z,3340
2017-10-03T13:44:40.061Z,3028
2017-10-03T13:45:40.122Z,2928
2017-10-03T13:46:39.981Z,2716
2017-10-03T13:47:39.613Z,2780